createdAt,value
2018-08-22T00:00:54.012Z,5.87
2018-08-22T00:03:22.649Z,4.93
2018-08-22T00:05:52.691Z,5.13
2018-08-22T00:08:25.702Z,5.60
2018-08-22T00:10:54.363Z,5.50
2018-08-22T00:13:23.133Z,5.77
2018-08-22T00:15:51.914Z,5.23
2018-08-22T00:18:20.859Z,5.20
2018-08-22T00:20:50.129Z,5.57
2018-08-22T00:23:18.766Z,5.43
2018-08-22T00:25:47.906Z,4.97
2018-08-22T00:28:16.919Z,4.83
2018-08-22T00:30:46.007Z,5.93
2018-08-22T00:33:15.612Z,5.80
2018-08-22T00:35:44.630Z,5.77
2018-08-22T00:38:13.389Z,5.50
2018-08-22T00:40:42.566Z,5.20
2018-08-22T00:43:11.899Z,5.63
2018-08-22T00:45:41.049Z,5.67
2018-08-22T00:48:09.961Z,5.27
2018-08-22T00:50:39.486Z,5.83
2018-08-22T00:53:08.832Z,5.73
2018-08-22T00:55:37.470Z,5.20
2018-08-22T00:58:06.933Z,4.97
2018-08-22T01:00:35.668Z,5.03
2018-08-22T01:03:04.926Z,5.40
2018-08-22T01:05:48.919Z,5.30
2018-08-22T01:08:17.625Z,5.30
2018-08-22T01:10:47.968Z,5.23
2018-08-22T01:13:16.706Z,5.63
2018-08-22T01:15:45.759Z,5.20
2018-08-22T01:18:15.370Z,6.03
2018-08-22T01:20:44.580Z,5.20
2018-08-22T01:23:14.066Z,5.57
2018-08-22T01:25:42.984Z,5.57
2018-08-22T01:28:12.457Z,5.07
2018-08-22T01:30:41.180Z,6.50
2018-08-22T01:33:09.880Z,5.50
2018-08-22T01:35:38.556Z,5.60
2018-08-22T01:38:08.277Z,5.97
2018-08-22T01:40:37.545Z,6.00
2018-08-22T01:43:06.109Z,6.27
2018-08-22T01:45:34.691Z,5.50
2018-08-22T01:48:03.539Z,5.90
2018-08-22T01:50:32.111Z,5.43
2018-08-22T01:53:01.222Z,6.10
2018-08-22T01:55:30.164Z,5.67
2018-08-22T01:57:58.880Z,5.77
2018-08-22T02:00:27.531Z,5.30
2018-08-22T02:02:56.024Z,5.67
2018-08-22T02:05:24.650Z,5.73
2018-08-22T02:07:53.442Z,6.10
2018-08-22T02:10:22.443Z,5.73
2018-08-22T02:12:51.065Z,5.80
2018-08-22T02:15:19.668Z,6.00
2018-08-22T02:17:48.279Z,6.17
2018-08-22T02:20:16.927Z,5.63
2018-08-22T02:22:45.568Z,6.27
2018-08-22T02:25:15.164Z,5.83
2018-08-22T02:27:43.657Z,5.67
2018-08-22T02:30:12.517Z,5.83
2018-08-22T02:32:41.436Z,5.83
2018-08-22T02:35:10.024Z,5.50
2018-08-22T02:37:38.612Z,6.00
2018-08-22T02:40:07.266Z,6.03
2018-08-22T02:42:35.858Z,6.53
2018-08-22T02:45:04.898Z,6.87
2018-08-22T02:47:33.686Z,5.80
2018-08-22T02:50:03.210Z,6.47
2018-08-22T02:52:31.860Z,6.00
2018-08-22T02:55:00.445Z,6.23
2018-08-22T02:57:29.116Z,6.30
2018-08-22T02:59:57.954Z,6.23
2018-08-22T03:02:26.724Z,6.30
2018-08-22T03:04:55.556Z,6.73
2018-08-22T03:07:25.331Z,6.17
2018-08-22T03:09:53.927Z,5.90
2018-08-22T03:12:22.581Z,5.67
2018-08-22T03:14:51.545Z,6.00
2018-08-22T03:17:20.620Z,5.70
2018-08-22T03:19:49.738Z,6.10
2018-08-22T03:22:18.834Z,6.10
2018-08-22T03:24:47.370Z,6.50
2018-08-22T03:27:15.936Z,5.27
2018-08-22T03:29:44.537Z,6.47
2018-08-22T03:32:14.193Z,5.73
2018-08-22T03:34:42.744Z,6.13
2018-08-22T03:37:11.994Z,6.00
2018-08-22T03:39:40.769Z,5.80
2018-08-22T03:42:09.723Z,6.70
2018-08-22T03:44:38.371Z,6.10
2018-08-22T03:47:07.044Z,6.27
2018-08-22T03:49:35.926Z,6.03
2018-08-22T03:52:04.485Z,5.40
2018-08-22T03:54:33.130Z,6.73
2018-08-22T03:57:01.639Z,6.50
2018-08-22T03:59:30.541Z,5.87
2018-08-22T04:01:59.451Z,6.77
2018-08-22T04:04:28.602Z,6.17
2018-08-22T04:06:57.291Z,6.47
2018-08-22T04:09:26.340Z,6.33
2018-08-22T04:11:55.081Z,6.27
2018-08-22T04:14:23.603Z,6.20
2018-08-22T04:16:52.397Z,6.20
2018-08-22T04:19:20.982Z,6.77
2018-08-22T04:21:49.626Z,6.93
2018-08-22T04:24:18.148Z,6.27
2018-08-22T04:26:46.713Z,6.27
2018-08-22T04:29:15.789Z,6.97
2018-08-22T04:31:44.439Z,7.30
2018-08-22T04:34:13.514Z,6.80
2018-08-22T04:36:42.856Z,6.60
2018-08-22T04:39:12.740Z,6.40
2018-08-22T04:41:41.321Z,6.67
2018-08-22T04:44:09.861Z,6.43
2018-08-22T04:46:38.472Z,6.57
2018-08-22T04:49:07.746Z,10.63
2018-08-22T04:51:36.247Z,8.07
2018-08-22T04:54:04.829Z,6.50
2018-08-22T04:56:33.454Z,6.83
2018-08-22T04:59:02.606Z,6.70
2018-08-22T05:01:31.634Z,7.43
2018-08-22T05:04:00.212Z,8.23
2018-08-22T05:06:28.784Z,7.00
2018-08-22T05:08:57.599Z,7.30
2018-08-22T05:11:26.336Z,7.23
2018-08-22T05:13:55.180Z,7.50
2018-08-22T05:16:23.912Z,7.87
2018-08-22T05:18:53.334Z,7.33
2018-08-22T05:21:21.933Z,8.43
2018-08-22T05:23:50.556Z,7.93
2018-08-22T05:26:19.184Z,7.40
2018-08-22T05:28:48.049Z,7.73
2018-08-22T05:31:17.724Z,7.47
2018-08-22T05:33:46.680Z,8.33
2018-08-22T05:36:15.563Z,7.57
2018-08-22T05:38:44.257Z,7.97
2018-08-22T05:41:12.923Z,8.30
2018-08-22T05:43:42.539Z,8.37
2018-08-22T05:46:11.588Z,8.20
2018-08-22T05:48:40.411Z,8.50
2018-08-22T05:51:09.426Z,9.00
2018-08-22T05:53:38.104Z,8.30
2018-08-22T05:56:06.761Z,8.40
2018-08-22T05:58:36.046Z,8.80
2018-08-22T06:01:04.734Z,8.47
2018-08-22T06:03:33.873Z,8.10
2018-08-22T06:06:02.599Z,8.93
2018-08-22T06:08:31.411Z,8.50
2018-08-22T06:11:00.807Z,9.43
2018-08-22T06:13:29.780Z,8.23
2018-08-22T06:15:58.632Z,7.90
2018-08-22T06:18:27.278Z,8.13
2018-08-22T06:20:56.212Z,8.57
2018-08-22T06:23:24.865Z,8.43
2018-08-22T06:26:08.544Z,8.70
2018-08-22T06:28:37.566Z,8.13
2018-08-22T06:31:06.732Z,8.23
2018-08-22T06:33:35.878Z,7.67
2018-08-22T06:36:04.726Z,8.63
2018-08-22T06:38:33.826Z,7.53
2018-08-22T06:41:02.980Z,7.83
2018-08-22T06:43:31.863Z,7.23
2018-08-22T06:46:01.060Z,7.43
2018-08-22T06:48:30.282Z,8.07
2018-08-22T06:51:00.386Z,7.60
2018-08-22T06:53:29.064Z,8.20
2018-08-22T06:55:57.863Z,8.33
2018-08-22T06:58:26.648Z,7.27
2018-08-22T07:00:56.061Z,8.00
2018-08-22T07:03:24.845Z,7.47
2018-08-22T07:05:53.752Z,7.60
2018-08-22T07:08:22.564Z,7.23
2018-08-22T07:10:51.286Z,7.30
2018-08-22T07:13:20.138Z,6.90
2018-08-22T07:15:48.833Z,7.03
2018-08-22T07:18:17.999Z,7.07
2018-08-22T07:20:47.436Z,7.27
2018-08-22T07:23:16.251Z,7.00
2018-08-22T07:25:44.945Z,6.23
2018-08-22T07:28:13.660Z,6.63
2018-08-22T07:30:42.600Z,6.10
2018-08-22T07:33:11.250Z,6.67
2018-08-22T07:35:40.198Z,6.57
2018-08-22T07:38:08.851Z,6.23
2018-08-22T07:40:42.763Z,7.03
2018-08-22T07:43:11.578Z,6.90
2018-08-22T07:45:40.243Z,6.47
2018-08-22T07:48:08.935Z,6.50
2018-08-22T07:50:37.539Z,6.17
2018-08-22T07:53:06.372Z,6.00
2018-08-22T07:55:37.136Z,7.00
2018-08-22T07:58:05.892Z,6.93
2018-08-22T08:00:35.030Z,6.23
2018-08-22T08:03:03.984Z,6.70
2018-08-22T08:05:32.731Z,6.27
2018-08-22T08:08:01.375Z,6.20
2018-08-22T08:10:33.163Z,6.60
2018-08-22T08:13:02.504Z,6.57
2018-08-22T08:15:31.403Z,6.30
2018-08-22T08:17:59.979Z,6.37
2018-08-22T08:20:28.894Z,6.20
2018-08-22T08:22:58.016Z,5.73
2018-08-22T08:25:26.951Z,6.73
2018-08-22T08:27:55.514Z,5.87
2018-08-22T08:30:24.427Z,6.30
2018-08-22T08:32:53.071Z,5.83
2018-08-22T08:35:21.908Z,6.10
2018-08-22T08:37:50.809Z,7.00
2018-08-22T08:40:19.533Z,6.23
2018-08-22T08:42:48.205Z,6.97
2018-08-22T08:45:16.960Z,7.00
2018-08-22T08:47:46.635Z,6.90
2018-08-22T08:50:15.759Z,6.37
2018-08-22T08:52:44.789Z,6.53
2018-08-22T08:55:13.890Z,6.80
2018-08-22T08:57:42.563Z,6.90
2018-08-22T09:00:11.361Z,6.37
2018-08-22T09:02:40.011Z,7.00
2018-08-22T09:05:08.765Z,7.00
2018-08-22T09:07:38.193Z,6.53
2018-08-22T09:10:06.968Z,6.97
2018-08-22T09:12:37.253Z,6.93
2018-08-22T09:15:06.607Z,6.20
2018-08-22T09:17:35.372Z,6.73
2018-08-22T09:20:04.682Z,6.37
2018-08-22T09:22:33.537Z,6.77
2018-08-22T09:25:02.275Z,7.30
2018-08-22T09:27:30.912Z,6.33
2018-08-22T09:29:59.647Z,6.60
2018-08-22T09:32:30.897Z,6.13
2018-08-22T09:34:59.687Z,7.43
2018-08-22T09:37:28.450Z,7.10
2018-08-22T09:39:57.180Z,7.33
2018-08-22T09:42:26.119Z,6.77
2018-08-22T09:44:54.686Z,7.20
2018-08-22T09:47:23.292Z,7.23
2018-08-22T09:49:51.922Z,8.20
2018-08-22T09:52:20.865Z,7.47
2018-08-22T09:54:58.597Z,8.63
2018-08-22T09:57:28.118Z,7.80
2018-08-22T09:59:56.783Z,8.97
2018-08-22T10:02:25.394Z,7.07
2018-08-22T10:04:54.293Z,8.67
2018-08-22T10:07:23.155Z,7.20
2018-08-22T10:09:51.965Z,7.13
2018-08-22T10:12:20.640Z,6.43
2018-08-22T10:14:49.577Z,6.63
2018-08-22T10:17:18.220Z,6.73
2018-08-22T10:19:47.040Z,6.50
2018-08-22T10:22:15.718Z,6.90
2018-08-22T10:24:44.486Z,6.90
2018-08-22T10:27:13.186Z,7.10
2018-08-22T10:29:41.953Z,7.40
2018-08-22T10:32:11.012Z,7.40
2018-08-22T10:34:39.618Z,6.77
2018-08-22T10:37:08.333Z,7.57
2018-08-22T10:39:51.748Z,6.67
2018-08-22T10:42:20.609Z,6.80
2018-08-22T10:44:49.439Z,6.43
2018-08-22T10:47:18.451Z,6.90
2018-08-22T10:49:47.237Z,6.93
2018-08-22T10:52:16.882Z,6.70
2018-08-22T10:54:46.855Z,6.90
2018-08-22T10:57:15.719Z,6.87
2018-08-22T10:59:44.672Z,6.77
2018-08-22T11:02:13.898Z,6.83
2018-08-22T11:04:42.885Z,7.30
2018-08-22T11:07:11.571Z,6.83
2018-08-22T11:09:40.335Z,6.87
2018-08-22T11:12:14.289Z,7.17
2018-08-22T11:14:43.097Z,6.63
2018-08-22T11:17:11.796Z,6.83
2018-08-22T11:19:40.590Z,6.77
2018-08-22T11:22:20.455Z,7.13
2018-08-22T11:25:00.236Z,6.13
2018-08-22T11:27:40.083Z,6.17
2018-08-22T11:30:20.075Z,6.60
2018-08-22T11:33:00.436Z,6.67
2018-08-22T11:35:28.160Z,6.30
2018-08-22T11:37:57.600Z,6.30
2018-08-22T11:40:26.759Z,7.37
2018-08-22T11:42:56.174Z,7.20
2018-08-22T11:45:25.824Z,7.43
2018-08-22T11:47:55.955Z,6.73
2018-08-22T11:50:24.514Z,6.83
2018-08-22T11:52:54.399Z,7.10
2018-08-22T11:55:23.134Z,6.70
2018-08-22T11:57:52.008Z,6.70
2018-08-22T12:00:21.939Z,6.37
2018-08-22T12:02:51.036Z,6.67
2018-08-22T12:05:19.810Z,6.67
2018-08-22T12:07:48.486Z,6.73
2018-08-22T12:10:17.304Z,6.13
2018-08-22T12:12:45.991Z,5.83
2018-08-22T12:15:14.777Z,6.60
2018-08-22T12:17:43.560Z,6.87
2018-08-22T12:20:12.874Z,6.37
2018-08-22T12:22:43.556Z,6.93
2018-08-22T12:25:18.351Z,6.90
2018-08-22T12:27:47.224Z,6.23
2018-08-22T12:30:16.236Z,7.07
2018-08-22T12:32:45.582Z,7.67
2018-08-22T12:35:14.308Z,6.67
2018-08-22T12:37:43.820Z,8.00
2018-08-22T12:40:12.456Z,7.90
2018-08-22T12:42:41.389Z,7.40
2018-08-22T12:45:11.600Z,7.23
2018-08-22T12:47:40.838Z,7.07
2018-08-22T12:50:10.391Z,6.97
2018-08-22T12:52:40.315Z,6.27
2018-08-22T12:55:09.328Z,6.63
2018-08-22T12:57:38.168Z,7.03
2018-08-22T13:00:07.455Z,6.60
2018-08-22T13:02:36.353Z,6.87
2018-08-22T13:05:05.092Z,6.43
2018-08-22T13:07:34.250Z,6.70
2018-08-22T13:10:05.458Z,6.40
2018-08-22T13:12:34.272Z,6.83
2018-08-22T13:15:03.111Z,6.03
2018-08-22T13:17:32.551Z,7.23
2018-08-22T13:20:01.572Z,6.93
2018-08-22T13:22:30.536Z,6.90
2018-08-22T13:24:59.411Z,6.07
2018-08-22T13:27:28.283Z,6.97
2018-08-22T13:29:57.471Z,6.73
2018-08-22T13:32:26.329Z,6.43
2018-08-22T13:34:54.958Z,6.20
2018-08-22T13:37:23.713Z,6.73
2018-08-22T13:39:52.487Z,6.33
2018-08-22T13:42:21.187Z,6.40
2018-08-22T13:44:49.732Z,6.50
2018-08-22T13:47:18.359Z,6.17
2018-08-22T13:49:47.098Z,6.40
2018-08-22T13:52:17.192Z,6.60
2018-08-22T13:54:46.214Z,6.13
2018-08-22T13:57:14.721Z,6.70
2018-08-22T13:59:43.537Z,6.70
2018-08-22T14:02:12.169Z,6.60
2018-08-22T14:04:41.302Z,7.03
2018-08-22T14:07:10.089Z,6.37
2018-08-22T14:09:38.798Z,6.70
2018-08-22T14:12:07.415Z,6.40
2018-08-22T14:14:36.260Z,5.80
2018-08-22T14:17:05.515Z,6.97
2018-08-22T14:19:34.321Z,6.10
2018-08-22T14:22:03.358Z,6.33
2018-08-22T14:24:31.940Z,6.80
2018-08-22T14:27:00.600Z,6.53
2018-08-22T14:29:29.304Z,6.33
2018-08-22T14:31:57.975Z,6.07
2018-08-22T14:34:26.996Z,6.03
2018-08-22T14:36:55.852Z,6.70
2018-08-22T14:39:24.622Z,6.10
2018-08-22T14:41:53.975Z,6.80
2018-08-22T14:44:23.220Z,6.60
2018-08-22T14:46:53.116Z,6.03
2018-08-22T14:49:22.546Z,6.40
2018-08-22T14:51:51.353Z,6.53
2018-08-22T14:54:21.337Z,6.50
2018-08-22T14:56:54.202Z,6.20
2018-08-22T14:59:22.959Z,6.23
2018-08-22T15:01:51.996Z,6.60
2018-08-22T15:04:20.683Z,5.93
2018-08-22T15:06:49.429Z,6.10
2018-08-22T15:09:20.141Z,6.67
2018-08-22T15:11:49.164Z,6.57
2018-08-22T15:14:17.984Z,6.70
2018-08-22T15:16:46.524Z,6.67
2018-08-22T15:19:15.247Z,6.37
2018-08-22T15:21:43.992Z,6.70
2018-08-22T15:24:12.736Z,5.97
2018-08-22T15:26:41.480Z,6.37
2018-08-22T15:29:10.097Z,6.40
2018-08-22T15:31:38.808Z,6.17
2018-08-22T15:34:07.844Z,6.17
2018-08-22T15:36:37.335Z,6.07
2018-08-22T15:39:08.899Z,5.70
2018-08-22T15:41:37.494Z,6.23
2018-08-22T15:44:06.379Z,5.70
2018-08-22T15:46:34.982Z,5.27
2018-08-22T15:49:03.787Z,6.60
2018-08-22T15:51:32.298Z,5.53
2018-08-22T15:54:10.070Z,6.07
2018-08-22T15:56:40.262Z,6.50
2018-08-22T15:59:10.168Z,5.90
2018-08-22T16:01:39.117Z,5.93
2018-08-22T16:04:08.352Z,5.87
2018-08-22T16:06:36.991Z,6.47
2018-08-22T16:09:15.611Z,6.23
2018-08-22T16:11:44.821Z,5.90
2018-08-22T16:14:13.732Z,5.90
2018-08-22T16:16:42.551Z,6.30
2018-08-22T16:19:11.196Z,5.93
2018-08-22T16:21:39.825Z,6.00
2018-08-22T16:24:08.756Z,5.73
2018-08-22T16:26:37.319Z,6.00
2018-08-22T16:29:06.058Z,6.10
2018-08-22T16:31:39.932Z,5.77
2018-08-22T16:34:10.712Z,6.17
2018-08-22T16:36:40.090Z,6.23
2018-08-22T16:39:09.422Z,6.30
2018-08-22T16:41:38.379Z,5.97
2018-08-22T16:44:07.063Z,6.63
2018-08-22T16:46:35.676Z,5.90
2018-08-22T16:49:04.333Z,5.77
2018-08-22T16:51:32.926Z,6.07
2018-08-22T16:54:07.017Z,6.23
2018-08-22T16:56:35.923Z,5.37
2018-08-22T16:59:12.355Z,5.73
2018-08-22T17:01:47.783Z,5.90
2018-08-22T17:04:17.194Z,6.00
2018-08-22T17:06:46.063Z,6.27
2018-08-22T17:09:14.665Z,6.67
2018-08-22T17:11:43.299Z,6.27
2018-08-22T17:14:12.245Z,6.00
2018-08-22T17:16:40.776Z,6.07
2018-08-22T17:19:09.377Z,6.33
2018-08-22T17:21:37.951Z,5.73
2018-08-22T17:24:06.731Z,6.87
2018-08-22T17:26:35.268Z,6.23
2018-08-22T17:29:04.032Z,6.10
2018-08-22T17:31:32.641Z,5.83
2018-08-22T17:34:02.694Z,5.37
2018-08-22T17:36:31.280Z,5.87
2018-08-22T17:39:00.912Z,5.90
2018-08-22T17:41:30.720Z,6.23
2018-08-22T17:44:09.537Z,6.67
2018-08-22T17:46:41.260Z,6.33
2018-08-22T17:49:10.151Z,6.07
2018-08-22T17:51:59.304Z,6.77
2018-08-22T17:54:28.469Z,6.57
2018-08-22T17:57:10.400Z,6.03
2018-08-22T17:59:39.586Z,6.10
2018-08-22T18:02:08.214Z,6.53
2018-08-22T18:04:48.390Z,6.07
2018-08-22T18:07:17.734Z,5.83
2018-08-22T18:09:47.560Z,6.23
2018-08-22T18:12:16.818Z,6.90
2018-08-22T18:14:45.754Z,6.57
2018-08-22T18:17:14.676Z,6.57
2018-08-22T18:19:43.278Z,6.50
2018-08-22T18:22:11.859Z,6.33
2018-08-22T18:24:47.507Z,6.77
2018-08-22T18:27:16.702Z,7.17
2018-08-22T18:29:46.434Z,6.77
2018-08-22T18:32:15.674Z,6.63
2018-08-22T18:34:57.726Z,6.90
2018-08-22T18:37:27.879Z,6.70
2018-08-22T18:40:11.706Z,7.03
2018-08-22T18:42:40.324Z,6.73
2018-08-22T18:45:09.120Z,7.07
2018-08-22T18:47:37.806Z,7.30
2018-08-22T18:50:06.495Z,7.13
2018-08-22T18:52:35.038Z,7.47
2018-08-22T18:55:03.914Z,7.10
2018-08-22T18:57:32.530Z,7.00
2018-08-22T19:00:03.485Z,6.83
2018-08-22T19:02:32.309Z,7.47
2018-08-22T19:05:29.904Z,7.30
2018-08-22T19:08:04.779Z,8.60
2018-08-22T19:10:34.910Z,7.63
2018-08-22T19:13:08.856Z,7.77
2018-08-22T19:15:38.111Z,7.73
2018-08-22T19:18:08.269Z,8.10
2018-08-22T19:20:37.434Z,7.60
2018-08-22T19:23:06.012Z,7.23
2018-08-22T19:25:34.801Z,7.87
2018-08-22T19:28:03.800Z,7.17
2018-08-22T19:30:35.348Z,7.40
2018-08-22T19:33:04.064Z,7.17
2018-08-22T19:35:33.037Z,7.60
2018-08-22T19:38:04.414Z,6.67
2018-08-22T19:40:33.066Z,7.17
2018-08-22T19:43:02.003Z,6.87
2018-08-22T19:45:30.897Z,6.50
2018-08-22T19:47:59.518Z,6.13
2018-08-22T19:50:29.460Z,7.20
2018-08-22T19:52:58.096Z,6.97
2018-08-22T19:55:26.764Z,6.90
2018-08-22T19:57:55.348Z,7.30
2018-08-22T20:00:24.250Z,6.70
2018-08-22T20:02:52.848Z,6.70
2018-08-22T20:05:21.498Z,7.83
2018-08-22T20:07:50.279Z,7.17
2018-08-22T20:10:23.858Z,6.90
2018-08-22T20:12:55.605Z,6.83
2018-08-22T20:15:24.343Z,6.93
2018-08-22T20:17:54.155Z,7.83
2018-08-22T20:20:22.950Z,8.00
2018-08-22T20:22:53.411Z,8.00
2018-08-22T20:25:22.533Z,7.10
2018-08-22T20:27:51.255Z,7.50
2018-08-22T20:30:20.820Z,8.03
2018-08-22T20:32:56.674Z,7.33
2018-08-22T20:35:31.184Z,7.37
2018-08-22T20:38:01.017Z,7.27
2018-08-22T20:40:29.863Z,7.93
2018-08-22T20:42:58.867Z,7.43
2018-08-22T20:45:32.724Z,7.50
2018-08-22T20:48:06.611Z,7.07
2018-08-22T20:50:35.976Z,8.13
2018-08-22T20:53:05.895Z,7.27
2018-08-22T20:55:34.571Z,7.87
2018-08-22T20:58:03.871Z,7.67
2018-08-22T21:00:34.663Z,7.77
2018-08-22T21:03:03.477Z,7.97
2018-08-22T21:05:32.436Z,8.20
2018-08-22T21:08:01.026Z,7.17
2018-08-22T21:10:29.896Z,8.23
2018-08-22T21:12:58.503Z,7.83
2018-08-22T21:15:27.090Z,7.57
2018-08-22T21:17:55.656Z,8.33
2018-08-22T21:20:26.150Z,8.00
2018-08-22T21:22:56.654Z,7.00
2018-08-22T21:25:25.620Z,7.23
2018-08-22T21:27:55.055Z,7.00
2018-08-22T21:30:24.028Z,7.33
2018-08-22T21:32:52.738Z,8.30
2018-08-22T21:35:26.079Z,7.40
2018-08-22T21:37:59.011Z,7.50
2018-08-22T21:40:27.564Z,7.20
2018-08-22T21:42:56.133Z,7.60
2018-08-22T21:45:25.076Z,7.53
2018-08-22T21:48:09.272Z,6.80
2018-08-22T21:50:37.940Z,7.17
2018-08-22T21:53:06.577Z,7.97
2018-08-22T21:55:37.861Z,7.97
2018-08-22T21:58:08.580Z,7.80
2018-08-22T22:00:37.485Z,7.57
2018-08-22T22:03:06.626Z,8.10
2018-08-22T22:05:42.466Z,8.00
2018-08-22T22:08:11.100Z,7.50
2018-08-22T22:10:40.078Z,7.50
2018-08-22T22:13:09.383Z,9.93
2018-08-22T22:15:46.018Z,7.50
2018-08-22T22:18:14.661Z,7.50
2018-08-22T22:20:47.818Z,8.47
2018-08-22T22:23:16.560Z,8.00
2018-08-22T22:25:50.356Z,7.83
2018-08-22T22:28:19.437Z,7.70
2018-08-22T22:30:48.125Z,7.73
2018-08-22T22:33:16.761Z,7.47
2018-08-22T22:35:45.703Z,8.57
2018-08-22T22:38:14.391Z,7.87
2018-08-22T22:40:42.989Z,7.87
2018-08-22T22:43:12.999Z,7.90
2018-08-22T22:45:41.884Z,8.47
2018-08-22T22:48:10.536Z,7.70
2018-08-22T22:50:39.180Z,7.83
2018-08-22T22:53:08.087Z,7.60
2018-08-22T22:55:37.030Z,7.47
2018-08-22T22:58:05.693Z,7.83
2018-08-22T23:00:34.225Z,8.50
2018-08-22T23:03:07.224Z,8.23
2018-08-22T23:05:35.919Z,8.47
2018-08-22T23:08:04.505Z,8.37
2018-08-22T23:10:33.071Z,7.73
2018-08-22T23:13:01.618Z,7.57
2018-08-22T23:15:31.209Z,7.47
2018-08-22T23:18:01.145Z,7.40
2018-08-22T23:20:34.163Z,7.40
2018-08-22T23:23:03.120Z,7.77
2018-08-22T23:25:31.909Z,8.27
2018-08-22T23:28:00.538Z,8.47
2018-08-22T23:30:36.492Z,8.23
2018-08-22T23:33:05.691Z,8.77
2018-08-22T23:35:35.508Z,8.60
2018-08-22T23:38:05.419Z,9.00
2018-08-22T23:40:35.061Z,8.87
2018-08-22T23:43:03.695Z,8.90
2018-08-22T23:45:36.136Z,8.37
2018-08-22T23:48:05.690Z,8.50
2018-08-22T23:50:55.918Z,8.80
2018-08-22T23:53:27.644Z,8.23
2018-08-22T23:56:10.074Z,8.10
2018-08-22T23:58:39.553Z,7.73
